Time;durP1;ratioP1;P1;durP2;ratioP2;P2;SDS_P1;SDS_P2;PMS_P1;PMS_P2;Temp;Humidity;BMP_temperature;BMP_pressure;BME280_temperature;BME280_humidity;BME280_pressure;Samples;Min_cycle;Max_cycle;Signal;HPM_P1;HPM_P2
2023/07/20 00:00:24;;;;;;;9.20;8.10;;;;;;;-144.30;47.91;83528.28;5020946;28;20204;-53
2023/07/20 00:02:52;;;;;;;12.52;7.72;;;;;;;-144.30;48.25;83575.97;5022285;28;20792;-51
2023/07/20 00:05:21;;;;;;;9.00;8.00;;;;;;;-144.30;48.38;83593.84;5023085;28;20198;-52
2023/07/20 00:07:51;;;;;;;8.95;8.15;;;;;;;-144.30;48.64;83564.03;5021921;28;20198;-49
2023/07/20 00:10:18;;;;;;;10.13;8.18;;;;;;;-144.30;48.83;83595.81;5021654;28;20561;-49
2023/07/20 00:12:47;;;;;;;12.38;11.10;;;;;;;-144.30;48.92;83619.66;5021154;28;20203;-49
2023/07/20 00:15:14;;;;;;;11.15;9.73;;;;;;;-144.30;48.90;83617.69;5021811;28;20607;-52
2023/07/20 00:17:43;;;;;;;8.80;8.10;;;;;;;-144.30;48.40;83595.81;5022542;28;20284;-48
2023/07/20 00:20:12;;;;;;;9.30;8.00;;;;;;;-144.30;48.10;83568.00;5023110;28;20284;-49
2023/07/20 00:22:38;;;;;;;10.48;8.10;;;;;;;-144.30;47.60;83627.63;5020165;28;20197;-52
2023/07/20 00:25:06;;;;;;;10.40;6.88;;;;;;;-144.30;47.35;83593.84;5020949;28;20316;-51
2023/07/20 00:27:33;;;;;;;8.43;7.63;;;;;;;-144.30;47.03;83595.81;5021755;28;20193;-51
2023/07/20 00:30:00;;;;;;;8.00;6.72;;;;;;;-144.30;46.53;83570.00;5022964;28;20201;-51
2023/07/20 00:32:27;;;;;;;13.32;7.57;;;;;;;-144.30;45.98;83538.22;5020828;28;20586;-51
2023/07/20 00:34:55;;;;;;;12.75;7.25;;;;;;;-144.30;45.76;83540.19;5021755;28;20599;-52
2023/07/20 00:37:22;;;;;;;8.98;7.30;;;;;;;-144.30;45.66;83536.22;5022742;28;20213;-52
2023/07/20 00:39:49;;;;;;;8.15;7.43;;;;;;;-144.30;44.87;83468.66;5021472;28;20216;-52
2023/07/20 00:42:16;;;;;;;12.13;7.38;;;;;;;-144.30;45.00;83500.47;5021140;28;20201;-52
2023/07/20 00:44:43;;;;;;;11.48;7.45;;;;;;;-144.30;44.43;83496.50;5022275;28;20219;-49
2023/07/20 00:47:09;;;;;;;8.73;7.75;;;;;;;-144.30;44.07;83468.66;5021018;28;20202;-52
2023/07/20 00:49:37;;;;;;;7.93;7.13;;;;;;;-144.30;44.26;83468.66;5020942;28;20202;-53
2023/07/20 00:52:08;;;;;;;14.00;12.63;;;;;;;-144.30;43.50;83476.63;5022426;28;20268;-53
2023/07/20 00:54:36;;;;;;;18.08;14.80;;;;;;;-144.30;43.04;83444.81;5021842;28;20198;-50
2023/07/20 00:57:04;;;;;;;13.43;10.85;;;;;;;-144.30;42.58;83411.06;5020738;28;20285;-51
2023/07/20 00:59:31;;;;;;;12.48;8.90;;;;;;;-144.30;42.20;83379.25;5021320;28;20200;-52
2023/07/20 01:01:58;;;;;;;10.27;9.02;;;;;;;-144.30;42.00;83389.19;5021888;28;20276;-52
2023/07/20 01:04:26;;;;;;;10.80;8.77;;;;;;;-144.30;41.56;83385.22;5019822;28;20225;-52
2023/07/20 01:07:02;;;;;;;17.60;12.02;;;;;;;-144.30;41.40;83365.34;5021228;28;20967;-52
2023/07/20 01:09:36;;;;;;;12.65;7.53;;;;;;;-144.30;41.70;83371.31;5020408;28;20300;-49
2023/07/20 01:12:08;;;;;;;11.40;6.68;;;;;;;-144.30;41.53;83327.59;5020358;28;20201;-52
2023/07/20 01:14:36;;;;;;;9.63;7.03;;;;;;;-144.30;41.54;83377.28;5021037;28;20193;-50
2023/07/20 01:17:03;;;;;;;8.43;7.05;;;;;;;-144.30;41.28;83095.16;5022013;28;20232;-49
2023/07/20 01:19:30;;;;;;;8.07;7.22;;;;;;;-144.30;41.68;83365.34;5020255;28;20206;-49
2023/07/20 01:22:03;;;;;;;15.02;6.78;;;;;;;-144.30;41.69;83289.84;5023011;28;20200;-52
2023/07/20 01:25:06;;;;;;;8.98;6.55;;;;;;;-144.30;41.66;83373.31;5019785;28;20333;-51
2023/07/20 01:27:58;;;;;;;7.78;7.07;;;;;;;-144.30;41.69;83367.34;5020529;28;20692;-52
2023/07/20 01:30:49;;;;;;;7.45;6.55;;;;;;;-144.30;41.59;83355.41;5021776;28;20198;-48
2023/07/20 01:33:18;;;;;;;14.80;7.22;;;;;;;-144.30;41.89;83385.22;5015711;28;20633;-48
2023/07/20 01:35:49;;;;;;;10.43;7.05;;;;;;;-144.30;41.91;83401.13;5019429;28;20198;-51
2023/07/20 01:38:17;;;;;;;10.27;6.90;;;;;;;-144.30;42.58;83397.16;5020230;28;20200;-52
2023/07/20 01:40:44;;;;;;;10.23;6.80;;;;;;;-144.30;42.63;83438.88;5021477;28;20198;-49
2023/07/20 01:43:12;;;;;;;10.68;7.28;;;;;;;-144.30;42.48;83345.50;5019758;28;20208;-51
2023/07/20 01:45:39;;;;;;;8.18;6.95;;;;;;;-144.30;42.52;83436.88;5019718;28;20300;-52
2023/07/20 01:48:06;;;;;;;8.35;7.35;;;;;;;-144.30;42.13;83389.19;5021941;28;20190;-51
2023/07/20 01:50:34;;;;;;;11.70;7.93;;;;;;;-144.30;42.83;83395.16;5020505;28;20197;-48
2023/07/20 01:53:01;;;;;;;10.85;7.40;;;;;;;-144.30;42.92;83420.97;5021527;28;20199;-50
2023/07/20 01:55:28;;;;;;;11.93;7.53;;;;;;;-144.30;42.54;83389.19;5019454;28;20198;-49
2023/07/20 01:57:56;;;;;;;13.98;7.20;;;;;;;-144.30;42.85;83403.09;5020222;28;20194;-48
2023/07/20 02:00:25;;;;;;;8.00;6.68;;;;;;;-144.30;42.80;83361.38;5021295;28;20208;-48
2023/07/20 02:02:52;;;;;;;8.70;6.88;;;;;;;-144.30;42.93;83399.13;5019924;28;20232;-49
2023/07/20 02:05:19;;;;;;;6.82;6.30;;;;;;;-144.30;42.95;83395.16;5020689;28;20227;-49
2023/07/20 02:07:47;;;;;;;7.35;6.63;;;;;;;-144.30;42.75;83422.97;5021168;28;20193;-49
2023/07/20 02:10:14;;;;;;;9.85;6.72;;;;;;;-144.30;43.13;83432.91;5019241;28;20201;-49
2023/07/20 02:12:41;;;;;;;8.95;6.50;;;;;;;-144.30;43.24;83422.97;5020309;28;20200;-48
2023/07/20 02:15:09;;;;;;;7.47;6.78;;;;;;;-144.30;43.00;83405.09;5020572;28;20201;-49
2023/07/20 02:17:36;;;;;;;12.55;6.63;;;;;;;-144.30;42.70;83407.06;5019635;28;20248;-48
2023/07/20 02:20:04;;;;;;;10.18;7.38;;;;;;;-144.30;42.85;83411.06;5018304;28;20201;-52
2023/07/20 02:22:31;;;;;;;7.50;6.60;;;;;;;-144.30;43.26;83420.97;5019963;28;20553;-52
2023/07/20 02:24:59;;;;;;;12.07;7.72;;;;;;;-144.30;43.66;83422.97;5019342;28;20235;-51
2023/07/20 02:27:26;;;;;;;8.90;6.65;;;;;;;-144.30;44.19;83476.63;5018347;28;20194;-49
2023/07/20 02:29:53;;;;;;;12.77;7.05;;;;;;;-144.30;44.55;83490.53;5020276;28;20666;-48
2023/07/20 02:32:20;;;;;;;10.15;7.82;;;;;;;-144.30;44.58;83508.41;5020519;28;20197;-49
2023/07/20 02:34:47;;;;;;;10.40;7.57;;;;;;;-144.30;44.87;83403.09;5018243;28;20186;-49
2023/07/20 02:37:14;;;;;;;8.45;6.97;;;;;;;-144.30;44.93;83462.72;5019775;28;20220;-48
2023/07/20 02:39:40;;;;;;;12.27;7.68;;;;;;;-144.30;44.75;83456.75;5020199;28;20219;-48
2023/07/20 02:42:09;;;;;;;8.57;7.03;;;;;;;-144.30;44.30;83476.63;5020256;28;20201;-52
2023/07/20 02:44:36;;;;;;;21.20;8.10;;;;;;;-144.30;43.96;83476.63;5019362;28;20670;-52
2023/07/20 02:47:03;;;;;;;8.30;6.97;;;;;;;-144.30;44.25;83474.63;5018245;28;20198;-52
2023/07/20 02:49:30;;;;;;;11.00;7.72;;;;;;;-144.30;44.13;83470.66;5018325;28;20198;-47
2023/07/20 02:51:56;;;;;;;10.30;7.20;;;;;;;-144.30;44.08;83514.38;5019060;28;20189;-52
2023/07/20 02:54:23;;;;;;;10.07;7.35;;;;;;;-144.30;44.54;83498.47;5021291;28;20208;-51
2023/07/20 02:56:50;;;;;;;10.35;7.38;;;;;;;-144.30;45.04;83488.53;5021206;28;20692;-48
2023/07/20 02:59:19;;;;;;;15.57;7.57;;;;;;;-144.30;45.15;83488.53;5018903;28;20197;-48
2023/07/20 03:01:46;;;;;;;12.13;7.28;;;;;;;-144.30;45.10;83504.44;5018594;28;20198;-51
2023/07/20 03:04:13;;;;;;;12.35;7.80;;;;;;;-144.30;44.76;83512.38;5004330;28;20724;-52
2023/07/20 03:06:40;;;;;;;10.15;7.65;;;;;;;-144.30;44.54;83522.31;4998755;28;20190;-52
2023/07/20 03:09:06;;;;;;;11.40;7.40;;;;;;;-144.30;44.49;83498.47;5001406;28;20237;-49
2023/07/20 03:11:34;;;;;;;12.38;8.23;;;;;;;-144.30;44.50;83488.53;4999884;28;20198;-48
2023/07/20 03:14:01;;;;;;;13.00;8.38;;;;;;;-144.30;44.68;83462.72;5007722;28;20202;-49
2023/07/20 03:16:32;;;;;;;16.73;8.88;;;;;;;-144.30;44.62;83464.69;5010234;28;20277;-52
2023/07/20 03:18:59;;;;;;;13.57;8.35;;;;;;;-144.30;45.12;83498.47;5008708;28;20226;-52
2023/07/20 03:21:26;;;;;;;16.23;8.93;;;;;;;-144.30;44.62;83504.44;5010112;28;20249;-52
2023/07/20 03:23:53;;;;;;;12.98;8.52;;;;;;;-144.30;44.67;83454.75;5003932;28;20202;-48
2023/07/20 03:26:20;;;;;;;12.15;8.75;;;;;;;-144.30;44.57;83528.28;5003357;28;20198;-53
2023/07/20 03:28:48;;;;;;;19.40;9.82;;;;;;;-144.30;44.44;83492.50;5010542;28;20202;-53
2023/07/20 03:31:15;;;;;;;15.95;9.07;;;;;;;-144.30;44.87;83502.44;5001785;28;20594;-50
2023/07/20 03:33:44;;;;;;;22.73;9.32;;;;;;;-144.30;44.74;83512.38;5003811;28;20205;-52
2023/07/20 03:36:11;;;;;;;19.30;9.88;;;;;;;-144.30;44.82;83524.31;5003916;28;20207;-52
2023/07/20 03:38:38;;;;;;;17.13;9.23;;;;;;;-144.30;44.58;83516.34;4996572;28;20195;-48
2023/07/20 03:41:04;;;;;;;24.10;9.50;;;;;;;-144.30;44.57;83484.56;5013296;28;20608;-48
2023/07/20 03:43:31;;;;;;;17.63;9.48;;;;;;;-144.30;44.14;83385.22;5012813;28;20198;-52
2023/07/20 03:45:58;;;;;;;15.45;9.20;;;;;;;-144.30;43.87;83456.75;5023861;28;20613;-53
2023/07/20 03:48:26;;;;;;;30.77;9.68;;;;;;;-144.30;43.44;83387.22;5032874;28;20201;-49
2023/07/20 03:50:55;;;;;;;10.95;9.38;;;;;;;-144.30;43.84;83385.22;5033065;28;20695;-48
2023/07/20 03:53:22;;;;;;;20.77;9.68;;;;;;;-144.30;43.38;83329.59;5033030;28;20204;-50
2023/07/20 03:55:49;;;;;;;26.40;10.68;;;;;;;-144.30;43.15;83345.50;5033136;28;20254;-48
2023/07/20 03:58:16;;;;;;;28.10;10.43;;;;;;;-144.30;43.07;83305.75;5032889;28;20598;-48
2023/07/20 04:00:46;;;;;;;24.58;10.68;;;;;;;-144.30;42.31;83136.88;5032625;28;20197;-49
2023/07/20 04:03:13;;;;;;;35.50;10.88;;;;;;;-144.30;41.22;83023.66;5039139;28;20235;-49
2023/07/20 04:05:40;;;;;;;48.17;11.27;;;;;;;-144.30;40.02;82856.78;5052688;28;20618;-53
2023/07/20 04:08:08;;;;;;;51.25;11.32;;;;;;;-144.30;39.24;82717.72;5052630;28;20207;-53
2023/07/20 04:10:36;;;;;;;25.08;10.07;;;;;;;-144.30;37.38;82556.84;5052620;28;20197;-53
2023/07/20 04:13:02;;;;;;;24.05;9.73;;;;;;;-144.30;36.48;82397.94;5042913;28;20689;-53
2023/07/20 04:15:29;;;;;;;25.05;9.15;;;;;;;-144.30;35.58;82272.81;5032448;28;20220;-53
2023/07/20 04:17:57;;;;;;;30.15;9.52;;;;;;;-144.30;35.20;82167.53;5031640;28;20193;-53
2023/07/20 04:20:24;;;;;;;27.83;10.13;;;;;;;-144.30;34.05;82098.03;5032590;28;20197;-53
2023/07/20 04:22:51;;;;;;;26.45;9.13;;;;;;;-144.30;33.48;81931.22;5032433;28;20284;-49
2023/07/20 04:25:19;;;;;;;22.60;8.80;;;;;;;-144.30;32.95;81859.72;5032358;28;20731;-48
2023/07/20 04:27:47;;;;;;;20.33;9.35;;;;;;;-144.30;32.82;81833.91;5031934;28;20205;-52
2023/07/20 04:30:15;;;;;;;27.20;9.60;;;;;;;-144.30;32.54;81760.41;5021003;28;20571;-50
2023/07/20 04:32:45;;;;;;;22.20;9.60;;;;;;;-144.30;32.61;81720.69;5021310;28;20190;-52
2023/07/20 04:35:17;;;;;;;27.33;8.70;;;;;;;-144.30;32.01;81617.44;5024256;28;20724;-49
2023/07/20 04:37:45;;;;;;;17.33;8.32;;;;;;;-144.30;31.64;81677.00;5032103;28;20193;-47
2023/07/20 04:40:13;;;;;;;20.48;8.55;;;;;;;-144.30;31.74;81633.31;5024277;28;20620;-47
2023/07/20 04:42:41;;;;;;;28.05;10.10;;;;;;;-144.30;31.67;81665.09;5032337;28;20599;-48
2023/07/20 04:45:09;;;;;;;21.95;9.43;;;;;;;-144.30;31.32;81583.69;5032063;28;20680;-52
2023/07/20 04:47:36;;;;;;;15.35;8.50;;;;;;;-144.30;31.23;81540.00;5032164;28;20208;-51
2023/07/20 04:50:03;;;;;;;12.77;8.77;;;;;;;-144.30;30.81;81418.88;5024905;28;20315;-48
2023/07/20 04:52:30;;;;;;;14.82;8.77;;;;;;;-144.30;30.86;81319.59;5021828;28;20249;-49
2023/07/20 04:54:57;;;;;;;12.82;7.82;;;;;;;-144.30;30.87;81289.81;5020056;28;20241;-49
2023/07/20 04:57:25;;;;;;;25.25;8.40;;;;;;;-144.30;30.47;81252.09;5021799;28;20193;-48
2023/07/20 04:59:53;;;;;;;15.27;7.45;;;;;;;-144.30;30.16;81220.31;5021877;28;20199;-48
2023/07/20 05:02:20;;;;;;;8.27;7.57;;;;;;;-144.30;30.07;81202.44;5020092;28;20206;-52
2023/07/20 05:04:47;;;;;;;13.73;8.63;;;;;;;-144.30;30.04;81027.72;5025564;28;20275;-49
2023/07/20 05:07:14;;;;;;;15.55;7.97;;;;;;;-144.30;30.21;81049.56;5017840;28;20206;-49
2023/07/20 05:09:41;;;;;;;12.30;8.05;;;;;;;-144.30;29.59;80966.19;5011583;28;20670;-50
2023/07/20 05:12:08;;;;;;;12.68;8.25;;;;;;;-144.30;29.91;81011.84;5011752;28;20277;-52
2023/07/20 05:14:35;;;;;;;21.15;9.07;;;;;;;-144.30;29.85;81132.94;5023190;28;20201;-48
2023/07/20 05:17:03;;;;;;;14.38;8.38;;;;;;;-144.30;29.98;81035.66;5022996;28;20585;-52
2023/07/20 05:19:30;;;;;;;12.55;7.80;;;;;;;-144.30;29.55;80932.41;5016789;28;20647;-51
2023/07/20 05:21:57;;;;;;;9.65;7.53;;;;;;;-144.30;29.55;81033.69;5015949;28;20203;-48
2023/07/20 05:24:24;;;;;;;12.02;7.50;;;;;;;-144.30;29.51;80962.19;5011253;28;20212;-49
2023/07/20 05:26:51;;;;;;;10.73;7.65;;;;;;;-144.30;29.08;80876.84;5011245;28;20229;-49
2023/07/20 05:29:18;;;;;;;15.57;7.95;;;;;;;-144.30;28.44;80571.09;5011440;28;20232;-48
2023/07/20 05:31:45;;;;;;;10.30;7.68;;;;;;;-144.30;28.31;80547.28;5011448;28;20552;-52
2023/07/20 05:34:13;;;;;;;8.35;7.05;;;;;;;-144.30;28.07;80426.19;5011370;28;20197;-51
2023/07/20 05:36:40;;;;;;;16.25;7.72;;;;;;;-144.30;27.52;80301.13;5011007;28;20704;-52
2023/07/20 05:39:07;;;;;;;14.82;7.85;;;;;;;-144.30;27.45;80239.59;5011521;28;20196;-49
2023/07/20 05:41:34;;;;;;;10.65;6.63;;;;;;;-144.30;27.18;80211.81;5011120;28;20202;-50
2023/07/20 05:44:01;;;;;;;7.88;7.10;;;;;;;-144.30;27.41;80144.31;5010329;28;20193;-50
2023/07/20 05:46:28;;;;;;;21.80;7.43;;;;;;;-144.30;26.91;80037.13;5010990;28;20312;-49
2023/07/20 05:48:55;;;;;;;12.95;6.60;;;;;;;-144.30;27.21;80106.63;5010942;28;20193;-52
2023/07/20 05:51:23;;;;;;;10.63;6.72;;;;;;;-144.30;27.00;79933.94;5010923;28;20212;-52
2023/07/20 05:53:50;;;;;;;11.40;6.80;;;;;;;-144.30;26.91;79995.47;5013706;28;20193;-52
2023/07/20 05:56:17;;;;;;;14.55;6.82;;;;;;;-144.30;26.61;79898.19;5022042;28;20284;-52
2023/07/20 05:58:43;;;;;;;12.77;6.43;;;;;;;-144.30;26.57;79814.84;5028331;28;20200;-52
2023/07/20 06:01:10;;;;;;;10.27;6.28;;;;;;;-144.30;26.75;79858.50;5023632;28;20251;-49
2023/07/20 06:03:37;;;;;;;8.45;6.85;;;;;;;-144.30;26.46;79914.09;5030066;28;20240;-52
2023/07/20 06:06:05;;;;;;;14.30;6.90;;;;;;;-144.30;26.53;80017.28;5029888;28;20568;-48
2023/07/20 06:08:33;;;;;;;10.40;6.97;;;;;;;-144.30;26.39;79924.00;5030033;28;20196;-52
2023/07/20 06:11:01;;;;;;;15.40;6.90;;;;;;;-144.30;26.12;79963.69;5029896;28;20236;-52
2023/07/20 06:13:28;;;;;;;9.57;7.13;;;;;;;-144.30;26.28;79949.81;5029803;28;20200;-52
2023/07/20 06:15:55;;;;;;;14.85;6.97;;;;;;;-144.30;26.34;79999.44;5026828;28;20573;-53
2023/07/20 06:18:23;;;;;;;12.70;6.68;;;;;;;-144.30;25.69;79858.50;5030037;28;20635;-49
2023/07/20 06:20:51;;;;;;;9.25;6.28;;;;;;;-144.30;26.04;79937.91;5029915;28;20688;-48
2023/07/20 06:23:19;;;;;;;11.43;7.18;;;;;;;-144.30;25.70;79791.03;5029838;28;20201;-49
2023/07/20 06:25:48;;;;;;;13.90;6.63;;;;;;;-144.30;25.72;79846.59;5030077;28;20597;-49
2023/07/20 06:28:15;;;;;;;9.32;5.97;;;;;;;-144.30;25.90;79798.97;5026176;28;20193;-50
2023/07/20 06:30:42;;;;;;;13.82;6.57;;;;;;;-144.30;26.39;80041.09;5023312;28;20196;-50
2023/07/20 06:33:09;;;;;;;11.35;6.32;;;;;;;-144.30;26.48;80263.41;5020329;28;20625;-51
2023/07/20 06:35:36;;;;;;;8.38;6.30;;;;;;;-144.30;26.41;80124.47;5015378;28;20221;-49
2023/07/20 06:38:03;;;;;;;8.27;6.22;;;;;;;-144.30;26.17;80037.13;5027012;28;20236;-50
2023/07/20 06:40:30;;;;;;;15.02;6.60;;;;;;;-144.30;26.46;79979.59;5029182;28;20701;-49
2023/07/20 06:42:59;;;;;;;11.70;6.63;;;;;;;-144.30;26.32;80039.13;5029509;28;20645;-52
2023/07/20 06:45:26;;;;;;;18.67;7.13;;;;;;;-144.30;26.83;80279.28;5028622;28;20231;-51
2023/07/20 06:47:53;;;;;;;13.05;6.72;;;;;;;-144.30;26.87;80340.84;5028864;28;20733;-49
2023/07/20 06:50:19;;;;;;;9.25;5.63;;;;;;;-144.30;26.83;80221.72;5009479;28;20208;-52
2023/07/20 06:52:47;;;;;;;10.63;6.63;;;;;;;-144.30;27.15;80436.13;5023790;28;20288;-49
2023/07/20 06:55:15;;;;;;;14.07;6.75;;;;;;;-144.30;27.16;80434.13;5026731;28;20747;-50
2023/07/20 06:57:42;;;;;;;8.32;6.60;;;;;;;-144.30;27.10;80406.34;5022411;28;20634;-50
2023/07/20 07:00:12;;;;;;;11.90;6.57;;;;;;;-144.30;26.94;80317.00;5018407;28;20215;-49
2023/07/20 07:02:39;;;;;;;18.60;6.45;;;;;;;-144.30;26.92;80273.34;5023150;28;20217;-49
2023/07/20 07:05:06;;;;;;;10.93;7.20;;;;;;;-144.30;26.92;80354.72;5013280;28;20204;-51
2023/07/20 07:07:33;;;;;;;16.77;6.82;;;;;;;-144.30;26.94;80483.75;5024830;28;20192;-50
2023/07/20 07:10:04;;;;;;;7.97;6.80;;;;;;;-144.30;27.01;80410.31;5032852;28;20204;-49
2023/07/20 07:12:31;;;;;;;13.35;6.63;;;;;;;-144.30;27.30;80499.63;5032530;28;20740;-48
2023/07/20 07:14:59;;;;;;;13.23;6.47;;;;;;;-144.30;27.36;80604.84;5032833;28;20201;-49
2023/07/20 07:17:28;;;;;;;17.67;6.45;;;;;;;-144.30;27.63;80571.09;5032529;28;20612;-48
2023/07/20 07:19:56;;;;;;;13.52;6.40;;;;;;;-144.30;27.35;80585.00;5032448;28;20204;-49
2023/07/20 07:22:23;;;;;;;9.82;6.15;;;;;;;-144.30;27.24;80567.13;5032423;28;20205;-50
2023/07/20 07:24:50;;;;;;;9.30;7.05;;;;;;;-144.30;27.52;80735.88;5025877;28;20589;-51
2023/07/20 07:27:17;;;;;;;10.70;6.63;;;;;;;-144.30;27.69;80700.16;5022757;28;20231;-49
2023/07/20 07:29:44;;;;;;;11.38;5.88;;;;;;;-144.30;27.57;80628.69;5026689;28;20599;-50
2023/07/20 07:32:11;;;;;;;14.25;7.10;;;;;;;-144.30;27.30;80618.75;5030260;28;20196;-52
2023/07/20 07:34:40;;;;;;;14.18;6.97;;;;;;;-144.30;26.99;80519.50;5032343;28;20735;-51
2023/07/20 07:37:07;;;;;;;12.77;6.97;;;;;;;-144.30;27.08;80481.78;5032104;28;20196;-51
2023/07/20 07:39:34;;;;;;;11.68;7.03;;;;;;;-144.30;27.05;80380.53;5031995;28;20255;-49
2023/07/20 07:42:01;;;;;;;16.50;6.78;;;;;;;-144.30;26.97;80434.13;5032042;28;20197;-51
2023/07/20 07:44:28;;;;;;;11.85;6.72;;;;;;;-144.30;26.71;80386.50;5041884;28;20685;-51
2023/07/20 07:46:54;;;;;;;19.23;7.30;;;;;;;-144.30;26.91;80309.06;5047482;28;20598;-51
2023/07/20 07:49:21;;;;;;;16.40;6.97;;;;;;;-144.30;26.86;80293.19;5031844;28;20707;-51
2023/07/20 07:51:50;;;;;;;17.20;7.57;;;;;;;-144.30;26.86;80358.69;5032460;28;20208;-51
2023/07/20 07:54:16;;;;;;;14.57;6.68;;;;;;;-144.30;26.67;80130.44;5031625;28;20197;-51
2023/07/20 07:56:44;;;;;;;9.77;7.18;;;;;;;-144.30;26.69;80255.47;5032085;28;20696;-50
2023/07/20 07:59:11;;;;;;;8.45;6.70;;;;;;;-144.30;26.42;80158.22;5031963;28;20228;-50
2023/07/20 08:01:38;;;;;;;10.95;6.53;;;;;;;-144.30;26.09;79818.81;5031750;28;20240;-50
2023/07/20 08:04:05;;;;;;;13.40;6.57;;;;;;;-144.30;25.73;79767.22;5018133;28;20228;-50
2023/07/20 08:06:32;;;;;;;19.17;6.18;;;;;;;-144.30;25.76;79945.84;5011341;28;20795;-49
2023/07/20 08:09:00;;;;;;;9.00;6.05;;;;;;;-144.30;25.92;79890.25;5011642;28;20560;-50
2023/07/20 08:11:27;;;;;;;13.88;6.32;;;;;;;-144.30;25.66;79755.31;5011932;28;20207;-49
2023/07/20 08:13:54;;;;;;;13.25;6.55;;;;;;;-144.30;25.50;79703.69;5031019;28;20193;-49
2023/07/20 08:16:21;;;;;;;13.07;6.38;;;;;;;-144.30;25.41;79689.81;5032021;28;20549;-51
2023/07/20 08:18:48;;;;;;;6.88;6.25;;;;;;;-144.30;25.98;79961.72;5031433;28;20201;-51
2023/07/20 08:21:15;;;;;;;7.50;6.43;;;;;;;-144.30;25.91;79953.78;5031306;28;20578;-50
2023/07/20 08:23:41;;;;;;;7.18;6.35;;;;;;;-144.30;25.71;79902.16;5031429;28;20200;-50
2023/07/20 08:26:10;;;;;;;7.53;6.53;;;;;;;-144.30;25.80;79947.81;5031352;28;20225;-50
2023/07/20 08:28:37;;;;;;;7.35;6.13;;;;;;;-144.30;26.00;80001.41;5027200;28;20197;-51
2023/07/20 08:31:06;;;;;;;9.90;6.28;;;;;;;-144.30;26.26;80128.44;5031322;28;20204;-52
2023/07/20 08:33:33;;;;;;;9.02;6.25;;;;;;;-144.30;26.56;80386.50;5030854;28;20200;-51
2023/07/20 08:36:03;;;;;;;11.27;6.28;;;;;;;-144.30;26.24;80203.88;5031105;28;20256;-50
2023/07/20 08:38:30;;;;;;;13.90;6.53;;;;;;;-144.30;26.49;80247.53;5030837;28;20232;-50
2023/07/20 08:40:59;;;;;;;9.80;6.88;;;;;;;-144.30;26.83;80356.72;5026959;28;20729;-50
2023/07/20 08:43:28;;;;;;;8.10;7.03;;;;;;;-144.30;26.88;80388.47;5030533;28;20193;-50
2023/07/20 08:45:56;;;;;;;12.05;6.90;;;;;;;-144.30;26.79;80386.50;5030955;28;20315;-51
2023/07/20 08:48:24;;;;;;;8.00;7.10;;;;;;;-144.30;26.67;80336.88;5030439;28;20210;-49
2023/07/20 08:50:52;;;;;;;8.75;6.85;;;;;;;-144.30;26.91;80332.91;5031182;28;20579;-50
2023/07/20 08:53:20;;;;;;;12.77;7.03;;;;;;;-144.30;27.04;80465.91;5031093;28;20215;-52
2023/07/20 08:55:47;;;;;;;11.75;6.40;;;;;;;-144.30;27.18;80497.66;5031273;28;20211;-52
2023/07/20 08:58:14;;;;;;;9.32;6.70;;;;;;;-144.30;27.37;80573.09;5031260;28;20196;-50
2023/07/20 09:00:43;;;;;;;15.15;7.07;;;;;;;-144.30;27.28;80360.69;5031013;28;20252;-51
2023/07/20 09:03:11;;;;;;;10.50;7.25;;;;;;;-144.30;27.35;80559.19;5030047;28;20631;-51
2023/07/20 09:05:38;;;;;;;10.52;7.75;;;;;;;-144.30;27.58;80638.59;5025945;28;20657;-49
2023/07/20 09:08:05;;;;;;;10.95;7.40;;;;;;;-144.30;27.82;80759.69;5010279;28;20228;-49
2023/07/20 09:10:32;;;;;;;9.73;7.07;;;;;;;-144.30;27.42;80755.72;5010707;28;20585;-52
2023/07/20 09:12:59;;;;;;;12.45;7.10;;;;;;;-144.30;27.81;80791.47;5010553;28;20688;-51
2023/07/20 09:15:26;;;;;;;7.53;6.70;;;;;;;-144.30;27.64;80733.88;5010431;28;20286;-51
2023/07/20 09:17:55;;;;;;;11.48;7.82;;;;;;;-144.30;27.74;80660.44;5010376;28;20197;-50
2023/07/20 09:20:22;;;;;;;12.20;7.10;;;;;;;-144.30;27.59;80696.16;5009789;28;20637;-52
2023/07/20 09:22:49;;;;;;;11.20;7.28;;;;;;;-144.30;27.44;80525.44;5010636;28;20296;-51
2023/07/20 09:25:19;;;;;;;9.05;7.28;;;;;;;-144.30;27.34;81101.19;5013872;28;20201;-51
2023/07/20 09:27:48;;;;;;;10.50;7.65;;;;;;;-144.30;27.44;80692.19;5015504;28;20712;-51
2023/07/20 09:30:16;;;;;;;11.50;7.40;;;;;;;-144.30;27.74;80739.84;5018123;28;20200;-51
2023/07/20 09:32:44;;;;;;;10.70;6.97;;;;;;;-144.30;27.78;80779.56;5030106;28;20260;-49
2023/07/20 09:35:17;;;;;;;10.10;6.93;;;;;;;-144.30;27.95;80807.34;5030216;28;20197;-51
2023/07/20 09:37:53;;;;;;;10.07;6.93;;;;;;;-144.30;28.17;80815.28;5030243;28;20193;-49
2023/07/20 09:40:20;;;;;;;12.25;7.43;;;;;;;-144.30;27.70;80803.38;5029961;28;20192;-51
2023/07/20 09:42:48;;;;;;;12.75;7.55;;;;;;;-144.30;28.30;80829.19;5029839;28;21364;-51
2023/07/20 09:45:15;;;;;;;9.27;7.30;;;;;;;-144.30;27.79;80747.78;5030145;28;20657;-51
2023/07/20 09:47:42;;;;;;;13.32;8.13;;;;;;;-144.30;27.93;80723.97;5029692;28;20227;-50
2023/07/20 09:50:12;;;;;;;10.52;7.25;;;;;;;-144.30;27.41;80626.69;5029903;28;20228;-52
2023/07/20 09:52:44;;;;;;;7.60;6.80;;;;;;;-144.30;27.25;80596.91;5029582;28;20189;-50
2023/07/20 09:55:12;;;;;;;12.23;7.57;;;;;;;-144.30;27.16;80596.91;5029464;28;20256;-50
2023/07/20 09:57:39;;;;;;;36.20;31.45;;;;;;;-144.30;27.12;80473.84;5030028;28;20668;-50
2023/07/20 10:00:12;;;;;;;29.88;22.20;;;;;;;-144.30;27.05;80457.94;5029852;28;20665;-50
2023/07/20 10:02:44;;;;;;;11.80;8.00;;;;;;;-144.30;27.92;80735.88;5029643;28;20205;-49
2023/07/20 10:05:14;;;;;;;10.35;7.45;;;;;;;-144.30;28.02;80688.22;5029564;28;20196;-51
2023/07/20 10:07:46;;;;;;;9.75;7.85;;;;;;;-144.30;27.74;80807.34;5029598;28;20228;-51
2023/07/20 10:10:15;;;;;;;12.65;7.03;;;;;;;-144.30;27.67;80839.13;5029689;28;20246;-52
2023/07/20 10:12:43;;;;;;;13.85;7.47;;;;;;;-144.30;28.83;80896.69;5029651;28;20203;-50
2023/07/20 10:15:16;;;;;;;9.90;7.55;;;;;;;-144.30;28.70;80966.19;5029421;28;20687;-51
2023/07/20 10:17:54;;;;;;;8.55;6.70;;;;;;;-144.30;29.24;80997.94;5029382;28;20279;-50
2023/07/20 10:20:21;;;;;;;9.63;7.90;;;;;;;-144.30;28.90;80986.03;5029606;28;20556;-53
2023/07/20 10:22:53;;;;;;;14.63;8.20;;;;;;;-144.30;29.36;81148.84;5029462;28;20200;-51
2023/07/20 10:25:23;;;;;;;8.68;7.72;;;;;;;-144.30;29.39;81269.94;5029941;28;20651;-51
2023/07/20 10:27:50;;;;;;;14.10;8.32;;;;;;;-144.30;29.82;81150.81;5029355;28;20700;-51
2023/07/20 10:30:20;;;;;;;12.73;8.40;;;;;;;-144.30;30.21;81321.56;5028647;28;20657;-52
2023/07/20 10:32:48;;;;;;;15.90;7.65;;;;;;;-144.30;30.23;81232.22;5029305;28;20624;-52
2023/07/20 10:35:16;;;;;;;13.02;8.50;;;;;;;-144.30;29.97;81101.19;5029475;28;20283;-51
2023/07/20 10:37:55;;;;;;;17.45;7.80;;;;;;;-144.30;29.42;81176.63;5029154;28;20205;-51
2023/07/20 10:40:27;;;;;;;9.75;7.82;;;;;;;-144.30;29.69;81555.88;5029279;28;20731;-50
2023/07/20 10:43:02;;;;;;;13.85;8.60;;;;;;;-144.30;29.57;81303.72;5028935;28;20205;-52
2023/07/20 10:45:41;;;;;;;8.70;7.75;;;;;;;-144.30;29.99;81438.72;5028783;28;20196;-50
2023/07/20 10:48:15;;;;;;;13.40;8.52;;;;;;;-144.30;30.76;81454.63;5034033;28;20227;-52
2023/07/20 10:50:42;;;;;;;11.10;8.10;;;;;;;-144.30;29.67;81319.59;5044663;28;20208;-52
2023/07/20 10:53:15;;;;;;;10.73;7.63;;;;;;;-144.30;29.02;81269.94;5048823;28;20253;-53
2023/07/20 10:55:43;;;;;;;9.23;7.60;;;;;;;-144.30;28.25;81291.78;5034788;28;20193;-51
2023/07/20 10:58:12;;;;;;;7.55;6.65;;;;;;;-144.30;29.43;81285.84;5019177;28;20236;-51
2023/07/20 11:00:57;;;;;;;8.40;6.30;;;;;;;-144.30;28.96;81260.03;5025906;28;20197;-50
2023/07/20 11:03:32;;;;;;;10.23;6.78;;;;;;;-144.30;27.93;81216.34;5028875;28;20395;-51
2023/07/20 11:06:00;;;;;;;7.03;6.43;;;;;;;-144.30;28.16;81196.50;5027389;28;20292;-51
2023/07/20 11:08:42;;;;;;;8.23;6.68;;;;;;;-144.30;28.46;81125.00;5028700;28;20287;-53
2023/07/20 11:11:25;;;;;;;18.75;10.38;;;;;;;-144.30;27.94;81130.97;5024654;28;20219;-52
2023/07/20 11:13:56;;;;;;;13.82;7.05;;;;;;;-144.30;27.85;81148.84;5041433;28;20664;-50
2023/07/20 11:16:35;;;;;;;11.90;7.20;;;;;;;-144.30;27.52;81085.31;5008835;28;20209;-49